Time;durP1;ratioP1;P1;durP2;ratioP2;P2;SDS_P1;SDS_P2;PMS_P1;PMS_P2;Temp;Humidity;BMP_temperature;BMP_pressure;BME280_temperature;BME280_humidity;BME280_pressure;Samples;Min_cycle;Max_cycle;Signal;HPM_P1;HPM_P2
2022/09/01 00:00:20;;;;;;;;;;;21.70;71.20;;;21.07;65.49;96130.53;4209944;33;20127;-86
2022/09/01 00:02:49;;;;;;;;;;;21.70;71.30;;;21.10;65.75;96127.09;4233513;33;20129;-86
2022/09/01 00:05:18;;;;;;;;;;;21.70;71.20;;;21.09;65.48;96117.94;4209879;33;20071;-86
2022/09/01 00:07:48;;;;;;;;;;;21.70;71.30;;;21.08;65.57;96119.09;4232815;33;20236;-87
2022/09/01 00:10:16;;;;;;;;;;;21.70;71.20;;;21.08;65.56;96119.09;4209224;33;20210;-86
2022/09/01 00:12:45;;;;;;;;;;;21.70;71.20;;;21.10;65.57;96119.56;4210020;33;20136;-86
2022/09/01 00:15:13;;;;;;;;;;;21.70;71.40;;;21.08;65.71;96110.72;4209800;33;19902;-86
2022/09/01 00:17:42;;;;;;;;;;;21.70;71.40;;;21.06;65.52;96110.25;4233007;33;19902;-86
2022/09/01 00:20:11;;;;;;;;;;;21.70;71.40;;;21.08;65.50;96116.31;4233052;33;19902;-86
2022/09/01 00:22:39;;;;;;;;;;;21.70;71.40;;;21.07;65.55;96120.22;4233156;33;20023;-86
2022/09/01 00:25:10;;;;;;;;;;;21.70;71.30;;;21.07;65.58;96125.81;4209774;33;19909;-86
2022/09/01 00:27:38;;;;;;;;;;;21.70;71.40;;;21.06;65.40;96120.56;4209597;33;19902;-86
2022/09/01 00:30:09;;;;;;;;;;;21.70;71.30;;;21.08;65.60;96121.03;4232918;33;20111;-86
2022/09/01 00:32:37;;;;;;;;;;;21.70;71.40;;;21.07;65.73;96114.66;4209649;33;19902;-85
2022/09/01 00:35:07;;;;;;;;;;;21.70;71.40;;;21.06;65.53;96115.81;4209631;33;20510;-86
2022/09/01 00:37:36;;;;;;;;;;;21.70;71.40;;;21.07;65.22;96114.66;4209107;33;19977;-86
2022/09/01 00:40:06;;;;;;;;;;;21.70;71.30;;;21.05;65.46;96105.00;4209576;33;20244;-86
2022/09/01 00:42:36;;;;;;;;;;;21.70;71.20;;;21.06;65.40;96109.44;4233146;33;20163;-86
2022/09/01 00:45:06;;;;;;;;;;;21.70;71.20;;;21.05;65.26;96091.94;4233049;33;19902;-86
2022/09/01 00:47:36;;;;;;;;;;;21.70;71.10;;;21.04;65.46;96098.66;4209119;33;20096;-86
2022/09/01 00:50:07;;;;;;;;;;;21.70;71.20;;;21.05;65.28;96099.44;4209413;33;19903;-86
2022/09/01 00:52:40;;;;;;;;;;;21.60;71.20;;;21.06;65.92;96106.63;4209538;33;19943;-86
2022/09/01 00:55:13;;;;;;;;;;;21.70;71.40;;;21.04;65.71;96109.78;4209619;33;20244;-86
2022/09/01 00:57:43;;;;;;;;;;;21.70;71.50;;;21.05;65.39;96110.56;4208966;33;19903;-86
2022/09/01 01:00:14;;;;;;;;;;;21.70;71.40;;;21.04;65.71;96115.34;4209184;33;20069;-86
2022/09/01 01:02:44;;;;;;;;;;;21.60;71.40;;;21.04;65.76;96109.78;4233002;33;19902;-86
2022/09/01 01:05:14;;;;;;;;;;;21.70;71.40;;;21.03;65.55;96113.72;4209402;33;20140;-86
2022/09/01 01:07:43;;;;;;;;;;;21.70;71.50;;;21.04;65.74;96115.34;4232357;33;19902;-86
2022/09/01 01:10:13;;;;;;;;;;;21.60;71.20;;;21.04;65.60;96115.34;4232921;33;20125;-86
2022/09/01 01:12:44;;;;;;;;;;;21.60;71.20;;;21.02;65.47;96111.28;4209192;33;19902;-86
2022/09/01 01:15:13;;;;;;;;;;;21.60;71.20;;;21.03;65.19;96116.50;4232772;33;19925;-86
2022/09/01 01:17:42;;;;;;;;;;;21.60;71.20;;;21.03;65.52;96119.28;4208788;33;20132;-87
2022/09/01 01:23:05;;;;;;;;;;;21.60;71.20;;;21.03;65.55;96122.06;4211488;33;19902;-87
2022/09/01 01:25:39;;;;;;;;;;;21.60;71.20;;;21.03;65.32;96119.28;4211364;33;19903;-87
2022/09/01 01:28:12;;;;;;;;;;;21.60;71.20;;;21.02;65.73;96114.88;4211604;33;19910;-87
2022/09/01 01:30:42;;;;;;;;;;;21.60;71.20;;;21.00;65.58;96115.22;4211600;33;20016;-86
2022/09/01 01:33:11;;;;;;;;;;;21.60;71.20;;;21.02;65.50;96117.66;4211553;33;20136;-86
2022/09/01 01:35:42;;;;;;;;;;;21.60;71.10;;;21.01;65.49;96110.44;4211352;33;20073;-86
2022/09/01 01:38:11;;;;;;;;;;;21.60;71.20;;;21.02;65.48;96114.06;4211519;33;20016;-87
2022/09/01 01:40:41;;;;;;;;;;;21.60;71.20;;;21.00;65.36;96114.38;4235015;33;19910;-86
2022/09/01 01:43:18;;;;;;;;;;;21.60;71.20;;;21.02;65.67;96114.88;4234977;33;19910;-86
2022/09/01 01:45:50;;;;;;;;;;;21.60;71.20;;;21.01;65.51;96113.22;4234595;33;19910;-86
2022/09/01 01:48:22;;;;;;;;;;;21.60;71.10;;;21.00;65.52;96115.22;4234865;33;19910;-86
2022/09/01 01:50:51;;;;;;;;;;;21.60;71.10;;;21.01;65.43;96118.81;4211392;33;20237;-85
2022/09/01 01:53:20;;;;;;;;;;;21.60;71.10;;;21.01;65.66;96121.59;4211428;33;20382;-86
2022/09/01 01:55:51;;;;;;;;;;;21.60;71.20;;;21.00;65.66;96114.38;4210911;33;19902;-85
2022/09/01 01:58:21;;;;;;;;;;;21.60;71.20;;;21.00;65.29;96119.94;4234754;33;19972;-86
2022/09/01 02:00:50;;;;;;;;;;;21.60;71.10;;;21.00;65.58;96120.78;4211230;33;20081;-85
2022/09/01 02:03:20;;;;;;;;;;;21.60;71.30;;;21.00;65.57;96108.81;4211347;33;19910;-86
2022/09/01 02:05:51;;;;;;;;;;;21.60;71.10;;;20.99;65.48;96113.59;4210786;33;19909;-86
2022/09/01 02:08:24;;;;;;;;;;;21.60;71.10;;;20.97;65.25;96098.41;4211217;33;20068;-86
2022/09/01 02:10:56;;;;;;;;;;;21.60;71.10;;;20.99;65.40;96098.84;4211219;33;20126;-86
2022/09/01 02:13:29;;;;;;;;;;;21.60;71.10;;;20.99;65.37;96101.63;4211111;33;19903;-86
2022/09/01 02:16:01;;;;;;;;;;;21.60;71.10;;;20.98;65.48;96103.59;4210760;33;20153;-86
2022/09/01 02:18:33;;;;;;;;;;;21.60;71.00;;;20.97;65.34;96092.84;4211192;33;20218;-85
2022/09/01 02:21:05;;;;;;;;;;;21.60;70.90;;;20.99;65.21;96096.06;4234040;33;19902;-86
2022/09/01 02:23:34;;;;;;;;;;;21.60;70.90;;;20.96;65.28;96089.22;4233500;33;20065;-86
2022/09/01 02:26:05;;;;;;;;;;;21.60;70.90;;;20.98;64.96;96094.44;4210249;33;19906;-86
2022/09/01 02:28:38;;;;;;;;;;;21.60;70.90;;;20.97;65.31;96092.84;4234345;33;20116;-85
2022/09/01 02:31:08;;;;;;;;;;;21.60;71.00;;;20.97;65.25;96095.63;4210764;33;20114;-86
2022/09/01 02:33:37;;;;;;;;;;;21.60;70.90;;;20.97;65.05;96088.06;4210552;33;19902;-86
2022/09/01 02:36:14;;;;;;;;;;;21.60;71.00;;;20.97;65.18;96087.25;4210655;33;20153;-86
2022/09/01 02:38:44;;;;;;;;;;;21.60;71.00;;;20.96;65.29;96086.44;4210735;33;19917;-86
2022/09/01 02:41:18;;;;;;;;;;;21.60;70.90;;;20.96;65.08;96093.97;4234274;33;19909;-86
2022/09/01 02:43:47;;;;;;;;;;;21.60;70.90;;;20.96;65.05;96091.19;4210721;33;19909;-86
2022/09/01 02:46:16;;;;;;;;;;;21.60;70.90;;;20.94;65.33;96082.38;4210568;33;20122;-86
2022/09/01 02:48:50;;;;;;;;;;;21.60;70.90;;;20.96;65.06;96088.41;4210746;33;20131;-85
2022/09/01 02:51:24;;;;;;;;;;;21.60;70.90;;;20.95;65.30;96092.34;4210729;33;19903;-86
2022/09/01 02:53:53;;;;;;;;;;;21.60;70.80;;;20.96;65.20;96091.19;4182811;33;19903;-85
2022/09/01 02:56:26;;;;;;;;;;;21.60;70.90;;;20.94;65.14;96088.75;4205622;33;20153;-86
2022/09/01 02:58:55;;;;;;;;;;;21.60;70.90;;;20.95;65.20;96086.78;4182904;33;19903;-86
2022/09/01 03:01:28;;;;;;;;;;;21.60;70.90;;;20.95;65.07;96089.56;4182767;33;20121;-86
2022/09/01 03:03:59;;;;;;;;;;;21.60;70.90;;;20.95;65.27;96095.13;4182793;33;19976;-85
2022/09/01 03:06:28;;;;;;;;;;;21.60;70.90;;;20.93;65.16;96083.53;4182155;33;19910;-86
2022/09/01 03:08:58;;;;;;;;;;;21.60;70.80;;;20.94;65.24;96094.31;4182633;33;20126;-86
2022/09/01 03:11:30;;;;;;;;;;;21.60;70.80;;;20.94;65.22;96090.72;4205785;33;19903;-85
2022/09/01 03:13:59;;;;;;;;;;;21.60;70.80;;;20.93;65.02;96083.53;4208929;33;19902;-85
2022/09/01 03:16:30;;;;;;;;;;;21.60;70.80;;;20.94;65.12;96093.50;4233506;33;19902;-86
2022/09/01 03:18:58;;;;;;;;;;;21.60;70.80;;;20.93;64.94;96091.88;4210394;33;19903;-86
2022/09/01 03:21:28;;;;;;;;;;;21.60;70.80;;;20.93;65.13;96091.88;4210204;33;19902;-87
2022/09/01 03:23:57;;;;;;;;;;;21.50;70.80;;;20.93;65.19;96101.03;4210423;33;20021;-86
2022/09/01 03:26:25;;;;;;;;;;;21.60;70.80;;;20.93;65.02;96097.44;4210082;33;20148;-86
2022/09/01 03:28:56;;;;;;;;;;;21.60;70.80;;;20.93;65.04;96100.22;4187592;33;20067;-86
2022/09/01 03:31:27;;;;;;;;;;;21.60;70.90;;;20.92;65.14;96090.25;4182457;33;20208;-85
2022/09/01 03:33:56;;;;;;;;;;;21.60;70.80;;;20.90;64.97;96098.94;4182310;33;20026;-86
2022/09/01 03:36:32;;;;;;;;;;;21.50;70.90;;;20.90;65.18;96093.38;4181974;33;20303;-86
2022/09/01 03:39:01;;;;;;;;;;;21.60;70.90;;;20.91;65.08;96094.19;4182175;33;20080;-86
2022/09/01 03:41:31;;;;;;;;;;;21.60;70.90;;;20.92;65.46;96101.38;4182432;33;20325;-86
2022/09/01 03:44:02;;;;;;;;;;;21.60;70.90;;;20.91;65.29;96100.56;4181578;33;20377;-85
2022/09/01 03:46:35;;;;;;;;;;;21.50;70.90;;;20.90;65.26;96103.69;4181868;33;20146;-86
2022/09/01 03:49:05;;;;;;;;;;;21.50;70.90;;;20.90;65.28;96095.34;4182473;33;19903;-86
2022/09/01 03:51:37;;;;;;;;;;;21.50;70.90;;;20.91;65.20;96094.19;4182072;33;19930;-86
2022/09/01 03:54:06;;;;;;;;;;;21.50;70.90;;;20.91;65.16;96096.97;4202062;33;19926;-86
2022/09/01 03:56:37;;;;;;;;;;;21.50;70.90;;;20.91;65.45;96088.63;4209318;33;20114;-86
2022/09/01 03:59:09;;;;;;;;;;;21.50;70.90;;;20.90;65.43;96096.16;4190642;33;20374;-86
2022/09/01 04:01:44;;;;;;;;;;;21.50;70.90;;;20.91;65.38;96094.19;4182074;33;19910;-86
2022/09/01 04:04:13;;;;;;;;;;;21.50;71.00;;;20.90;65.52;96101.72;4182137;33;19992;-86
2022/09/01 04:06:42;;;;;;;;;;;21.50;70.90;;;20.90;65.42;96096.16;4181682;33;20018;-85
2022/09/01 04:09:11;;;;;;;;;;;21.50;71.10;;;20.91;65.21;96096.97;4181765;33;20078;-86
2022/09/01 04:11:45;;;;;;;;;;;21.50;71.00;;;20.90;65.16;96098.13;4205227;33;20118;-86
2022/09/01 04:14:15;;;;;;;;;;;21.50;71.00;;;20.91;65.44;96105.31;4182053;33;19975;-87
2022/09/01 04:19:33;;;;;;;;;;;21.50;71.30;;;20.90;65.34;96089.75;4181842;33;20130;-86
2022/09/01 04:22:02;;;;;;;;;;;21.50;71.20;;;20.90;65.49;96096.16;4207567;33;20137;-85
2022/09/01 04:24:44;;;;;;;;;;;21.50;71.10;;;20.90;65.29;96089.75;4204933;33;19903;-85
2022/09/01 04:27:14;;;;;;;;;;;21.50;71.20;;;20.88;65.44;96084.56;4181499;33;19902;-86
2022/09/01 04:29:45;;;;;;;;;;;21.50;71.20;;;20.88;65.37;96084.56;4204814;33;20134;-86
2022/09/01 04:32:14;;;;;;;;;;;21.50;71.00;;;20.90;65.18;96086.97;4181832;33;19903;-85
2022/09/01 04:34:46;;;;;;;;;;;21.50;71.10;;;20.89;65.31;96082.56;4181619;33;19910;-85
2022/09/01 04:37:19;;;;;;;;;;;21.50;71.10;;;20.90;65.35;96086.97;4181369;33;19920;-85
2022/09/01 04:39:52;;;;;;;;;;;21.50;71.10;;;20.90;65.20;96086.97;4181478;33;19979;-85
2022/09/01 04:42:22;;;;;;;;;;;21.50;70.90;;;20.87;65.27;96080.13;4204902;33;19910;-85
2022/09/01 04:44:53;;;;;;;;;;;21.50;70.90;;;20.90;64.97;96081.41;4204746;33;20166;-85
2022/09/01 04:47:28;;;;;;;;;;;21.50;70.90;;;20.90;65.18;96076.69;4181202;33;19908;-85
2022/09/01 04:49:59;;;;;;;;;;;21.50;70.90;;;20.90;65.41;96076.69;4204733;33;19903;-85
2022/09/01 04:52:30;;;;;;;;;;;21.50;70.90;;;20.91;65.40;96071.91;4181565;33;20130;-85
2022/09/01 04:55:02;;;;;;;;;;;21.50;71.10;;;20.91;65.18;96075.53;4181565;33;19903;-85
2022/09/01 04:57:31;;;;;;;;;;;21.50;71.00;;;20.91;65.12;96066.34;4234414;33;19902;-85
2022/09/01 05:00:01;;;;;;;;;;;21.60;71.00;;;20.90;65.62;96071.13;4193994;33;20461;-85
2022/09/01 05:02:30;;;;;;;;;;;21.60;71.20;;;20.93;65.19;96069.63;4183879;33;19910;-85
2022/09/01 05:04:58;;;;;;;;;;;21.50;70.90;;;20.93;65.14;96064.03;4200283;33;19902;-85
2022/09/01 05:07:28;;;;;;;;;;;21.60;70.80;;;20.94;65.11;96060.91;4211310;33;19902;-85
2022/09/01 05:09:58;;;;;;;;;;;21.50;70.70;;;20.94;65.29;96052.56;4211552;33;20102;-85
2022/09/01 05:12:44;;;;;;;;;;;21.60;70.80;;;20.98;65.39;96061.03;4211752;33;19902;-85
2022/09/01 05:15:16;;;;;;;;;;;21.60;71.10;;;21.05;65.39;96050.19;4211893;33;20322;-85
2022/09/01 05:17:44;;;;;;;;;;;21.70;71.00;;;21.29;65.16;96054.19;4211302;33;19902;-86
2022/09/01 05:20:13;;;;;;;;;;;21.90;70.80;;;21.55;63.95;96051.13;4211423;33;20049;-85
2022/09/01 05:22:42;;;;;;;;;;;22.20;69.70;;;21.80;63.79;96055.91;4235077;33;19902;-85
2022/09/01 05:25:13;;;;;;;;;;;22.50;69.20;;;21.96;63.06;96059.66;4211462;33;19909;-85
2022/09/01 05:27:48;;;;;;;;;;;22.60;68.20;;;21.97;62.90;96054.88;4234613;33;19987;-85
2022/09/01 05:30:20;;;;;;;;;;;22.70;67.80;;;21.92;62.76;96070.69;4211567;33;19910;-85
2022/09/01 05:32:49;;;;;;;;;;;22.70;67.80;;;21.85;63.06;96055.69;4211614;33;19909;-85
2022/09/01 05:35:19;;;;;;;;;;;22.60;67.70;;;21.78;63.51;96064.63;4211494;33;19910;-86
2022/09/01 05:37:50;;;;;;;;;;;22.50;68.10;;;21.69;63.17;96056.38;4211276;33;19902;-85
2022/09/01 05:40:22;;;;;;;;;;;22.40;68.40;;;21.58;63.16;96055.97;4235018;33;20064;-85
2022/09/01 05:42:54;;;;;;;;;;;22.30;68.10;;;21.55;63.83;96056.69;4234878;33;20047;-86
2022/09/01 05:45:25;;;;;;;;;;;22.30;68.80;;;21.57;64.32;96056.34;4211501;33;19937;-85
2022/09/01 05:47:55;;;;;;;;;;;22.20;69.30;;;21.65;64.15;96061.00;4211323;33;19903;-85
2022/09/01 05:50:27;;;;;;;;;;;22.30;69.40;;;21.70;63.58;96058.00;4211388;33;19902;-85
2022/09/01 05:52:55;;;;;;;;;;;22.40;69.00;;;21.70;63.41;96068.31;4211397;33;20169;-85
2022/09/01 05:55:26;;;;;;;;;;;22.40;68.80;;;21.68;63.73;96065.91;4211255;33;20221;-86
2022/09/01 05:57:55;;;;;;;;;;;22.40;68.70;;;21.76;63.82;96059.38;4211429;33;20218;-85
2022/09/01 06:00:33;;;;;;;;;;;22.40;69.00;;;21.87;63.37;96061.75;4234687;33;19909;-85
2022/09/01 06:03:08;;;;;;;;;;;22.50;68.70;;;21.97;62.70;96061.28;4211276;33;19983;-86
2022/09/01 06:05:36;;;;;;;;;;;22.60;68.30;;;22.04;62.73;96061.50;4234357;33;20061;-85
2022/09/01 06:08:12;;;;;;;;;;;22.60;67.90;;;22.12;62.14;96070.09;4210521;33;19981;-85
2022/09/01 06:10:41;;;;;;;;;;;22.70;67.90;;;22.15;62.35;96070.22;4211230;33;20111;-85
2022/09/01 06:13:10;;;;;;;;;;;22.70;67.70;;;22.17;61.89;96076.25;4211182;33;19903;-86
2022/09/01 06:15:40;;;;;;;;;;;22.80;67.40;;;22.19;61.96;96070.31;4210755;33;20196;-86
2022/09/01 06:18:11;;;;;;;;;;;22.80;67.30;;;22.19;61.82;96078.69;4234639;33;20112;-86
2022/09/01 06:20:48;;;;;;;;;;;22.80;67.20;;;22.17;62.18;96081.81;4210903;33;19902;-87
2022/09/01 06:23:17;;;;;;;;;;;22.80;67.20;;;22.17;61.95;96081.00;4210831;33;20145;-85
2022/09/01 06:25:47;;;;;;;;;;;22.80;67.20;;;22.18;61.95;96089.03;4210520;33;20186;-86
2022/09/01 06:28:22;;;;;;;;;;;22.80;67.30;;;22.18;62.01;96089.03;4210940;33;19902;-86
2022/09/01 06:30:52;;;;;;;;;;;22.80;67.20;;;22.13;62.13;96080.09;4210819;33;19925;-86
2022/09/01 06:33:23;;;;;;;;;;;22.80;67.10;;;22.03;61.82;96081.38;4210780;33;19902;-86
2022/09/01 06:35:54;;;;;;;;;;;22.70;67.30;;;21.99;62.53;96081.25;4210393;33;19917;-85
2022/09/01 06:38:26;;;;;;;;;;;22.70;67.60;;;21.97;62.42;96088.31;4234508;33;20032;-85
2022/09/01 06:41:02;;;;;;;;;;;22.60;67.60;;;21.91;62.47;96084.94;4210718;33;20085;-86
2022/09/01 06:43:32;;;;;;;;;;;22.60;67.90;;;21.88;62.99;96085.66;4234177;33;19909;-86
2022/09/01 06:46:03;;;;;;;;;;;22.50;68.00;;;21.83;62.78;96088.66;4210126;33;19902;-86
2022/09/01 06:48:33;;;;;;;;;;;22.50;68.30;;;21.79;63.27;96093.31;4210727;33;19902;-86
2022/09/01 06:51:08;;;;;;;;;;;22.40;68.40;;;21.72;63.47;96091.91;4201557;33;19955;-86
2022/09/01 06:53:37;;;;;;;;;;;22.40;68.60;;;21.68;63.84;96098.53;4182827;33;19903;-86
2022/09/01 06:56:09;;;;;;;;;;;22.30;68.80;;;21.65;63.52;96093.63;4182263;33;19998;-86
2022/09/01 06:58:40;;;;;;;;;;;22.30;68.90;;;21.61;63.73;96093.53;4182668;33;19903;-86
2022/09/01 07:01:14;;;;;;;;;;;22.30;69.20;;;21.59;63.93;96098.59;4206114;33;19909;-87
2022/09/01 07:03:44;;;;;;;;;;;22.20;69.20;;;21.58;63.98;96102.53;4182571;33;19903;-86
2022/09/01 07:06:41;;;;;;;;;;;22.20;69.10;;;21.55;64.03;96103.22;4196078;33;20422;-84
2022/09/01 07:09:19;;;;;;;;;;;22.20;69.40;;;21.53;64.20;96099.97;4205837;33;19929;-85
2022/09/01 07:12:08;;;;;;;;;;;22.20;69.10;;;21.51;64.32;96096.69;4205667;33;20155;-85
2022/09/01 07:14:36;;;;;;;;;;;22.20;69.70;;;21.49;63.58;96099.84;4182695;33;19910;-86
2022/09/01 07:17:10;;;;;;;;;;;22.20;69.50;;;21.50;63.90;96097.84;4205102;33;19902;-86
2022/09/01 07:19:39;;;;;;;;;;;22.10;69.60;;;21.50;64.24;96097.84;4182203;33;20052;-86
2022/09/01 07:22:07;;;;;;;;;;;22.10;69.60;;;21.47;64.13;96102.16;4205620;33;20181;-87
2022/09/01 07:24:38;;;;;;;;;;;22.10;69.60;;;21.48;63.93;96095.44;4182335;33;20156;-86
2022/09/01 07:27:26;;;;;;;;;;;22.10;69.60;;;21.51;64.01;96099.47;4205060;33;19903;-87
2022/09/01 07:29:56;;;;;;;;;;;22.20;69.60;;;21.56;64.04;96104.84;4182236;33;20486;-86
2022/09/01 07:32:26;;;;;;;;;;;22.20;69.60;;;21.59;63.95;96109.72;4182350;33;20018;-86
2022/09/01 07:34:55;;;;;;;;;;;22.20;69.50;;;21.62;63.86;96095.16;4182762;33;20168;-86
2022/09/01 07:37:26;;;;;;;;;;;22.20;69.40;;;21.66;63.96;96098.06;4181752;33;20157;-87
2022/09/01 07:39:54;;;;;;;;;;;22.20;70.10;;;21.74;63.53;96102.69;4182207;33;20249;-86
2022/09/01 07:42:46;;;;;;;;;;;22.20;69.10;;;21.81;63.28;96096.56;4197999;33;19909;-86
2022/09/01 07:45:24;;;;;;;;;;;22.30;69.00;;;21.88;63.29;96097.63;4205312;33;19903;-86
2022/09/01 07:48:08;;;;;;;;;;;22.40;69.00;;;21.96;62.73;96098.66;4182275;33;20069;-86
2022/09/01 07:50:46;;;;;;;;;;;22.50;68.70;;;22.02;62.74;96102.03;4182019;33;20103;-86
2022/09/01 07:53:17;;;;;;;;;;;22.50;68.50;;;22.11;62.66;96104.72;4205313;33;20211;-84
2022/09/01 07:55:49;;;;;;;;;;;22.60;68.30;;;22.14;62.32;96095.66;4181560;33;19911;-85
2022/09/01 07:58:19;;;;;;;;;;;22.60;68.10;;;22.20;62.45;96097.84;4182014;33;19914;-85
2022/09/01 08:00:50;;;;;;;;;;;22.70;68.10;;;22.25;62.22;96098.78;4181892;33;20049;-85
2022/09/01 08:03:23;;;;;;;;;;;22.70;68.00;;;22.28;62.06;96087.72;4205168;33;20058;-85
2022/09/01 08:05:56;;;;;;;;;;;22.80;67.60;;;22.31;62.00;96091.81;4181455;33;20125;-85
2022/09/01 08:08:25;;;;;;;;;;;22.80;67.50;;;22.32;61.90;96085.88;4205275;33;19902;-86
2022/09/01 08:10:54;;;;;;;;;;;22.80;67.50;;;22.32;61.75;96083.09;4181972;33;20178;-86
2022/09/01 08:13:23;;;;;;;;;;;22.90;67.60;;;22.32;61.77;96074.72;4182116;33;20171;-87
2022/09/01 08:15:51;;;;;;;;;;;22.90;67.50;;;22.30;62.20;96076.25;4181345;33;19997;-86
2022/09/01 08:18:22;;;;;;;;;;;22.80;67.40;;;22.29;62.24;96077.41;4181924;33;19911;-87
2022/09/01 08:20:51;;;;;;;;;;;22.80;67.60;;;22.26;62.33;96076.13;4181539;33;19913;-87
2022/09/01 08:23:49;;;;;;;;;;;22.80;67.60;;;22.21;62.45;96070.78;4187048;33;19903;-87
2022/09/01 08:26:20;;;;;;;;;;;22.80;67.70;;;22.16;62.38;96073.78;4181727;33;19903;-87
2022/09/01 08:28:49;;;;;;;;;;;22.80;67.80;;;22.11;62.48;96066.47;4181979;33;20161;-86
2022/09/01 08:31:20;;;;;;;;;;;22.70;67.90;;;22.09;62.78;96070.78;4181230;33;20064;-85
2022/09/01 08:33:51;;;;;;;;;;;22.70;68.10;;;22.04;62.70;96066.25;4181896;33;20005;-86
2022/09/01 08:36:20;;;;;;;;;;;22.70;68.20;;;22.05;63.04;96063.13;4181236;33;20113;-88
2022/09/01 08:38:51;;;;;;;;;;;22.70;68.40;;;22.08;62.84;96064.38;4181909;33;20141;-85
2022/09/01 08:41:26;;;;;;;;;;;22.70;68.30;;;22.11;62.71;96065.69;4181626;33;20030;-85
2022/09/01 08:44:02;;;;;;;;;;;22.70;68.40;;;22.13;62.83;96063.38;4181751;33;19907;-85
2022/09/01 08:46:34;;;;;;;;;;;22.70;68.30;;;22.13;62.57;96061.38;4181089;33;19903;-85
2022/09/01 08:49:08;;;;;;;;;;;22.70;68.40;;;22.15;62.82;96058.22;4202326;33;19902;-86
2022/09/01 08:52:00;;;;;;;;;;;22.70;68.40;;;22.16;62.85;96057.06;4233872;33;20379;-86
2022/09/01 08:54:35;;;;;;;;;;;22.70;68.30;;;22.15;62.80;96058.22;4209641;33;19902;-86
2022/09/01 08:57:07;;;;;;;;;;;22.70;68.30;;;22.15;62.77;96058.22;4209156;33;20026;-87
2022/09/01 08:59:54;;;;;;;;;;;22.70;68.30;;;22.16;63.01;96051.50;4204620;33;20141;-87
2022/09/01 09:02:54;;;;;;;;;;;22.70;68.30;;;22.15;63.10;96044.28;4181529;33;19903;-86
2022/09/01 09:05:38;;;;;;;;;;;22.70;68.30;;;22.14;62.80;96043.50;4181429;33;20135;-86
2022/09/01 09:08:56;;;;;;;;;;;22.70;68.40;;;22.13;63.05;96041.06;4181393;33;20388;-87
2022/09/01 09:12:09;;;;;;;;;;;22.70;68.40;;;22.12;62.88;96042.22;4050965;34;19912;-86
2022/09/01 09:14:49;;;;;;;;;;;22.70;68.50;;;22.11;62.96;96043.38;4186563;33;20134;-87
2022/09/01 09:17:19;;;;;;;;;;;22.70;68.50;;;22.11;63.24;96035.03;4180976;33;19910;-87
2022/09/01 09:19:48;;;;;;;;;;;22.70;68.60;;;22.09;62.94;96037.34;4204324;33;19995;-87
2022/09/01 09:22:19;;;;;;;;;;;22.70;68.70;;;22.09;63.42;96035.34;4181454;33;19910;-86
2022/09/01 09:24:50;;;;;;;;;;;22.70;68.70;;;22.07;63.43;96038.50;4181262;33;20134;-87
2022/09/01 09:27:21;;;;;;;;;;;22.70;68.70;;;22.06;63.48;96036.06;4204024;33;20149;-86
2022/09/01 09:29:52;;;;;;;;;;;22.70;68.70;;;22.04;63.31;96033.63;4205370;33;19997;-87
2022/09/01 09:32:21;;;;;;;;;;;22.70;68.80;;;22.04;63.34;96033.63;4181187;33;19909;-86
2022/09/01 09:34:50;;;;;;;;;;;22.70;68.80;;;22.04;63.22;96028.03;4181101;33;19903;-87
2022/09/01 09:37:26;;;;;;;;;;;22.70;68.80;;;22.03;63.30;96026.41;4203981;33;19903;-86
2022/09/01 09:40:14;;;;;;;;;;;22.70;68.90;;;22.02;63.58;96024.78;4181277;33;19903;-87
2022/09/01 09:43:02;;;;;;;;;;;22.60;68.80;;;22.02;63.34;96024.78;4181737;33;20137;-87
2022/09/01 09:45:33;;;;;;;;;;;22.60;68.80;;;22.02;63.40;96026.78;4183005;33;19910;-87
2022/09/01 09:48:06;;;;;;;;;;;22.60;68.80;;;22.02;63.56;96024.00;4183369;33;19902;-86
2022/09/01 09:50:37;;;;;;;;;;;22.60;68.80;;;22.01;63.56;96022.34;4206749;33;19915;-85
2022/09/01 09:53:17;;;;;;;;;;;22.60;68.80;;;21.99;63.43;96025.50;4183455;33;19909;-86
2022/09/01 09:56:03;;;;;;;;;;;22.60;69.00;;;21.99;63.39;96019.94;4206089;33;19958;-86
2022/09/01 09:58:36;;;;;;;;;;;22.60;68.90;;;21.96;63.77;96026.19;4183313;33;20315;-86
2022/09/01 10:01:09;;;;;;;;;;;22.60;69.10;;;21.95;63.67;96024.56;4206149;33;19902;-84
2022/09/01 10:03:43;;;;;;;;;;;22.60;69.10;;;21.93;63.82;96021.31;4206476;33;20226;-86
2022/09/01 10:06:15;;;;;;;;;;;22.60;69.20;;;21.91;64.02;96027.25;4182903;33;20058;-86
2022/09/01 10:08:46;;;;;;;;;;;22.60;69.30;;;21.90;63.81;96019.22;4206582;33;19910;-86
2022/09/01 10:11:31;;;;;;;;;;;22.50;69.30;;;21.89;63.94;96020.38;4183368;33;19903;-86
2022/09/01 10:14:00;;;;;;;;;;;22.50;69.40;;;21.88;64.04;96013.22;4182960;33;20087;-86
2022/09/01 10:16:30;;;;;;;;;;;22.50;69.40;;;21.86;64.16;96013.53;4205842;33;19910;-86
2022/09/01 10:19:00;;;;;;;;;;;22.50;69.40;;;21.87;64.04;96008.78;4183045;33;19979;-85
2022/09/01 10:21:33;;;;;;;;;;;22.50;69.50;;;21.86;63.94;96007.16;4206684;33;20126;-85
2022/09/01 10:24:07;;;;;;;;;;;22.50;69.50;;;21.86;64.02;96007.16;4182899;33;19910;-87
2022/09/01 10:26:37;;;;;;;;;;;22.50;69.50;;;21.84;64.20;96006.69;4182423;33;19902;-86
2022/09/01 10:29:08;;;;;;;;;;;22.50;69.60;;;21.84;64.13;96007.50;4207940;33;19902;-86
2022/09/01 10:31:38;;;;;;;;;;;22.50;69.70;;;21.83;64.04;96010.66;4210882;33;20319;-86
2022/09/01 10:34:07;;;;;;;;;;;22.50;69.60;;;21.84;64.05;96017.84;4234320;33;19986;-86
2022/09/01 10:36:35;;;;;;;;;;;22.40;69.60;;;21.81;64.11;96011.00;4233928;33;20168;-86
2022/09/01 10:39:08;;;;;;;;;;;22.40;69.60;;;21.82;64.28;96003.44;4210602;33;19902;-86
2022/09/01 10:42:06;;;;;;;;;;;22.40;69.60;;;21.81;64.20;96007.38;4210757;33;20182;-85
2022/09/01 10:44:37;;;;;;;;;;;22.40;69.70;;;21.80;64.31;96006.59;4188679;33;20384;-86
2022/09/01 10:47:10;;;;;;;;;;;22.40;69.70;;;21.80;64.40;96005.75;4210155;33;19902;-86
2022/09/01 10:50:02;;;;;;;;;;;22.40;69.50;;;21.81;64.46;96001.81;4234995;33;20159;-86
2022/09/01 10:53:04;;;;;;;;;;;22.40;69.70;;;21.82;64.08;96003.44;4210677;33;19902;-88
2022/09/01 10:55:44;;;;;;;;;;;22.40;69.60;;;21.83;64.34;95996.72;4210185;33;19903;-84
2022/09/01 10:58:40;;;;;;;;;;;22.40;69.60;;;21.81;64.38;95991.50;4234101;33;20487;-85
2022/09/01 11:01:09;;;;;;;;;;;22.50;69.70;;;21.83;64.21;95985.56;4234961;33;20125;-86
2022/09/01 11:03:54;;;;;;;;;;;22.40;69.60;;;21.81;64.59;95982.31;4210531;33;20160;-86
2022/09/01 11:07:13;;;;;;;;;;;22.40;69.60;;;21.81;64.18;95979.53;4209975;33;19954;-85
2022/09/01 11:09:42;;;;;;;;;;;22.40;69.60;;;21.79;64.27;95977.09;4210352;33;19909;-86
2022/09/01 11:12:48;;;;;;;;;;;22.40;69.70;;;21.76;64.52;95975.81;4233844;33;19970;-84
2022/09/01 11:15:38;;;;;;;;;;;22.40;69.70;;;21.76;64.39;95964.66;4210712;33;20005;-85
2022/09/01 11:18:11;;;;;;;;;;;22.40;69.80;;;21.75;64.42;95970.59;4233669;33;19909;-85
2022/09/01 11:20:40;;;;;;;;;;;22.40;69.90;;;21.74;64.67;95967.00;4233725;33;20248;-86
2022/09/01 11:23:12;;;;;;;;;;;22.40;70.00;;;21.72;64.38;95965.72;4233697;33;19936;-85
2022/09/01 11:25:42;;;;;;;;;;;22.40;70.10;;;21.73;64.51;95965.38;4209818;33;20089;-85
2022/09/01 11:28:43;;;;;;;;;;;22.40;70.00;;;21.74;64.71;95968.97;4233783;33;20408;-86
2022/09/01 11:31:32;;;;;;;;;;;22.40;70.00;;;21.74;64.71;95968.97;4234615;33;20075;-85
2022/09/01 11:34:11;;;;;;;;;;;22.40;70.10;;;21.72;64.47;95960.97;4233645;33;20135;-85
2022/09/01 11:36:55;;;;;;;;;;;22.40;70.00;;;21.70;64.53;95952.13;4233098;33;19981;-85
2022/09/01 11:39:40;;;;;;;;;;;22.30;70.00;;;21.70;64.33;95954.94;4233556;33;20038;-86
2022/09/01 11:42:18;;;;;;;;;;;22.30;70.00;;;21.69;64.67;95961.66;4233545;33;19973;-86
2022/09/01 11:44:52;;;;;;;;;;;22.30;70.00;;;21.68;64.41;95956.44;4210048;33;19992;-86
2022/09/01 11:47:25;;;;;;;;;;;22.30;70.10;;;21.69;64.49;95949.69;4233072;33;20111;-85
2022/09/01 11:49:56;;;;;;;;;;;22.30;70.10;;;21.68;64.72;95953.66;4233266;33;19909;-86